Flight Track Log - Related Links

Times and Time Zones

All times are in EDT time to prevent confusion due to time zone crossing. See the N777NC flight status page for this flight to view local times or setup timezone preferences in your user account.

Time Position Orientation Groundspeed Altitude Reporting Facility
EDT Latitude Longitude Course Direction KTS MPH feet Rate Location/Type
Thu 10:27:25 AM 39.8842 -84.2119 191° South 166 191 1,700  Level Indianapolis Center
Thu 10:28:01 AM 39.8592 -84.2294 208° Southwest 200 230 2,300 1,562 Climbing Indianapolis Center
Thu 10:28:38 AM 39.8428 -84.2764 246° West 229 264 3,600 1,879 Climbing Indianapolis Center
Thu 10:29:40 AM 39.8169 -84.3536 246° West 231 266 5,400 1,951 Climbing Indianapolis Center
Thu 10:30:00 AM 39.5458 -84.4042 218° Southwest  Level FlightAware Approximate
Thu 10:30:41 AM 39.7636 -84.4097 219° Southwest 257 296 7,600  Level Indianapolis Center
Thu 10:31:00 AM 39.4603 -84.4605 205° Southwest  Level FlightAware Approximate
Thu 10:31:42 AM 39.6914 -84.4344 195° South 266 306 9,600  Level Indianapolis Center
Thu 10:32:00 AM 39.3701 -84.5033 191° South  Level FlightAware Approximate
Thu 10:32:44 AM 39.6169 -84.4583 194° South 270 311 11,500  Level Indianapolis Center
Thu 10:33:45 AM 39.5381 -84.4847 194° South 284 327 13,500 1,610 Climbing Indianapolis Center
Thu 10:34:47 AM 39.4567 -84.5169 197° South 296 341 14,800 1,073 Climbing Indianapolis Center
Thu 10:35:48 AM 39.3697 -84.5583 200° South 322 371 15,700 878 Climbing Indianapolis Center
Thu 10:36:50 AM 39.2739 -84.6050 201° Southwest 353 406 16,600 1,171 Climbing Indianapolis Center
Thu 10:37:51 AM 39.1756 -84.6514 200° South 367 422 18,100 1,574 Climbing Indianapolis Center
Thu 10:38:52 AM 39.0550 -84.6831 192° South 374 430 19,800 1,561 Climbing Indianapolis Center
Thu 10:39:54 AM 38.9528 -84.6644 172° South 383 441 21,300 1,366 Climbing Indianapolis Center
Thu 10:40:55 AM 38.8742 -84.5864 142° Southeast 389 448 22,600 1,279 Climbing Indianapolis Center
Thu 10:41:56 AM 38.7803 -84.4856 140° Southeast 398 458 23,900 1,073 Climbing Indianapolis Center
Thu 10:42:58 AM 38.6883 -84.3961 143° Southeast 412 474 24,800 878 Climbing Indianapolis Center
Thu 10:43:59 AM 38.5900 -84.3028 143° Southeast 421 484 25,700 1,024 Climbing Indianapolis Center
Thu 10:45:01 AM 38.4914 -84.2172 146° Southeast 425 489 26,900 1,171 Climbing Indianapolis Center
Thu 10:46:02 AM 38.3917 -84.1378 148° Southeast 422 486 28,100 885 Climbing Indianapolis Center
Thu 10:47:03 AM 38.2889 -84.0661 151° Southeast 420 483 28,700 829 Climbing Indianapolis Center
Thu 10:48:05 AM 38.1858 -83.9936 151° Southeast 420 483 29,800 634 Climbing Indianapolis Center
Thu 10:49:06 AM 38.0872 -83.9158 148° Southeast 417 480 30,000 98 Climbing Indianapolis Center
Thu 10:50:08 AM 37.9786 -83.7975 139° Southeast 435 501 30,000  Level Indianapolis Center
Thu 10:51:09 AM 37.8869 -83.6931 138° Southeast 440 506 30,000  Level Indianapolis Center
Thu 10:52:10 AM 37.7961 -83.5878 138° Southeast 441 507 30,000  Level Indianapolis Center
Thu 10:53:12 AM 37.6919 -83.5056 148° Southeast 439 505 30,000  Level Indianapolis Center
Thu 10:54:13 AM 37.5833 -83.4367 153° Southeast 436 502 30,000  Level Indianapolis Center
Thu 10:55:14 AM 37.4781 -83.3600 150° Southeast 440 506 30,000  Level Indianapolis Center
Thu 10:56:16 AM 37.3856 -83.2539 138° Southeast 446 513 30,000  Level Indianapolis Center
Thu 10:57:17 AM 37.2744 -83.2092 162° South 430 495 30,000  Level Indianapolis Center
Thu 10:58:18 AM 37.1553 -83.2106 181° South 428 493 30,000  Level Indianapolis Center
Thu 10:59:20 AM 37.0183 -83.2111 180° South 426 490 30,000  Level Indianapolis Center
Thu 11:00:21 AM 36.9000 -83.2122 180° South 428 493 30,000  Level Indianapolis Center
Thu 11:01:22 AM 36.7806 -83.2108 179° South 432 497 30,000  Level Indianapolis Center
Thu 11:02:23 AM 36.6611 -83.2008 176° South 432 497 30,000  Level Indianapolis Center
Thu 11:03:25 AM 36.5417 -83.1775 171° South 434 499 30,000  Level Indianapolis Center
Thu 11:04:26 AM 36.4225 -83.1533 171° South 434 499 30,000  Level Indianapolis Center
Thu 11:05:06 AM 36.3344 -83.1392 173° South 441 507 30,000  Level Atlanta Center
Thu 11:06:06 AM 36.2175 -83.1019 166° South 441 507 30,000  Level Atlanta Center
Thu 11:07:06 AM 36.0983 -83.0672 167° South 435 501 30,000  Level Atlanta Center
Thu 11:08:06 AM 35.9772 -83.0586 177° South 435 501 30,000  Level Atlanta Center
Thu 11:09:06 AM 35.8542 -83.0575 180° South 435 501 30,000  Level Atlanta Center
Thu 11:10:06 AM 35.7331 -83.0614 181° South 443 510 30,000  Level Atlanta Center
Thu 11:11:06 AM 35.6103 -83.0861 189° South 443 510 30,000  Level Atlanta Center
Thu 11:12:06 AM 35.4872 -83.1078 188° South 443 510 30,000  Level Atlanta Center
Thu 11:13:06 AM 35.3622 -83.1269 187° South 443 510 30,000  Level Atlanta Center
Thu 11:14:06 AM 35.2436 -83.1692 196° South 443 510 30,000 -250 Level Atlanta Center
Thu 11:15:06 AM 35.1314 -83.2108 197° South 438 504 29,500 -700 Descending Atlanta Center
Thu 11:16:06 AM 35.0022 -83.2400 190° South 432 497 28,600 -1,050 Descending Atlanta Center
Thu 11:17:06 AM 34.8853 -83.2539 186° South 432 497 27,400 -1,250 Descending Atlanta Center
Thu 11:18:06 AM 34.7750 -83.2775 190° South 427 491 26,100 -1,900 Descending Atlanta Center
Thu 11:19:06 AM 34.6686 -83.3114 195° South 417 480 23,600 -2,650 Descending Atlanta Center
Thu 11:20:06 AM 34.5669 -83.3956 214° Southwest 420 483 20,800 -2,300 Descending Atlanta Center
Thu 11:21:06 AM 34.4817 -83.4567 211° Southwest 429 494 19,000 -2,000 Descending Atlanta Center
Thu 11:22:06 AM 34.3881 -83.5303 213° Southwest 413 475 16,800 -2,100 Descending Atlanta Center
Thu 11:23:06 AM 34.2964 -83.6014 213° Southwest 402 463 14,800 -1,400 Descending Atlanta Center
Thu 11:24:06 AM 34.2194 -83.6897 224° Southwest 390 449 14,000 -400 Descending Atlanta Center
Thu 11:25:06 AM 34.1447 -83.7853 227° Southwest 385 443 14,000 -52 Level Atlanta Center
Thu 11:26:02 AM 34.0667 -83.8833 226° Southwest 383 441 13,900 -724 Descending Atlanta TRACON
Thu 11:27:02 AM 34.0167 -83.9833 239° Southwest 366 421 12,600 -950 Descending Atlanta TRACON
Thu 11:28:02 AM 33.9333 -84.0833 225° Southwest 365 420 12,000 -316 Descending Atlanta TRACON
Thu 11:28:56 AM 33.8667 -84.1500 220° Southwest 371 427 12,000  Level Atlanta TRACON
Thu 11:30:08 AM 33.8000 -84.2333 226° Southwest 284 327 12,000 -143 Level Atlanta TRACON
Thu 11:31:02 AM 33.7667 -84.3000 239° Southwest 273 314 11,700 -1,000 Descending Atlanta TRACON
Thu 11:32:02 AM 33.7333 -84.4000 248° West 275 316 10,100 -1,550 Descending Atlanta TRACON
Thu 11:33:02 AM 33.7333 -84.4833 270° West 273 314 8,600 -1,526 Descending Atlanta TRACON
Thu 11:33:56 AM 33.7333 -84.5500 270° West 268 308 7,200 -1,474 Descending Atlanta TRACON
Thu 11:34:56 AM 33.7333 -84.6500 270° West 264 304 5,800 -1,190 Descending Atlanta TRACON
Thu 11:36:02 AM 33.7000 -84.6833 220° Southwest 185 213 4,700 -1,150 Descending Atlanta TRACON
Thu 11:36:56 AM 33.6667 -84.6500 140° Southeast 167 192 3,500 -1,333 Descending Atlanta TRACON

Login

Don't have an account? Register now (free) for customized features, flight alerts, and more!